sensor_id;sensor_type;location;lat;lon;timestamp;temperature;humidity
63537;DHT22;49686;51.880;5.632;2022-07-19T00:00:27;18.00;99.90
63537;DHT22;49686;51.880;5.632;2022-07-19T00:02:54;18.00;99.90
63537;DHT22;49686;51.880;5.632;2022-07-19T00:05:21;17.90;99.90
63537;DHT22;49686;51.880;5.632;2022-07-19T00:07:49;17.90;99.90
63537;DHT22;49686;51.880;5.632;2022-07-19T00:10:19;17.90;99.90
63537;DHT22;49686;51.880;5.632;2022-07-19T00:12:47;17.90;99.90
63537;DHT22;49686;51.880;5.632;2022-07-19T00:15:16;17.90;99.90
63537;DHT22;49686;51.880;5.632;2022-07-19T00:17:49;17.90;99.90
63537;DHT22;49686;51.880;5.632;2022-07-19T00:20:22;17.90;99.90
63537;DHT22;49686;51.880;5.632;2022-07-19T00:22:50;17.80;99.90
63537;DHT22;49686;51.880;5.632;2022-07-19T00:25:20;17.80;99.90
63537;DHT22;49686;51.880;5.632;2022-07-19T00:27:50;17.90;99.90
63537;DHT22;49686;51.880;5.632;2022-07-19T00:30:18;17.90;99.90
63537;DHT22;49686;51.880;5.632;2022-07-19T00:32:48;18.00;99.90
63537;DHT22;49686;51.880;5.632;2022-07-19T00:35:15;18.10;99.90
63537;DHT22;49686;51.880;5.632;2022-07-19T00:37:42;18.10;99.90
63537;DHT22;49686;51.880;5.632;2022-07-19T00:40:15;18.00;99.90
63537;DHT22;49686;51.880;5.632;2022-07-19T00:42:42;18.00;99.90
63537;DHT22;49686;51.880;5.632;2022-07-19T00:45:09;17.90;99.90
63537;DHT22;49686;51.880;5.632;2022-07-19T00:47:38;17.80;99.90
63537;DHT22;49686;51.880;5.632;2022-07-19T00:50:09;17.70;99.90
63537;DHT22;49686;51.880;5.632;2022-07-19T00:52:37;17.60;99.90
63537;DHT22;49686;51.880;5.632;2022-07-19T00:55:07;17.50;99.90
63537;DHT22;49686;51.880;5.632;2022-07-19T00:57:36;17.40;99.90
63537;DHT22;49686;51.880;5.632;2022-07-19T01:00:05;17.40;99.90
63537;DHT22;49686;51.880;5.632;2022-07-19T01:02:32;17.30;99.90
63537;DHT22;49686;51.880;5.632;2022-07-19T01:05:02;17.20;99.90
63537;DHT22;49686;51.880;5.632;2022-07-19T01:07:29;17.10;99.90
63537;DHT22;49686;51.880;5.632;2022-07-19T01:09:56;17.10;99.90
63537;DHT22;49686;51.880;5.632;2022-07-19T01:12:24;17.10;99.90
63537;DHT22;49686;51.880;5.632;2022-07-19T01:14:55;17.00;99.90
63537;DHT22;49686;51.880;5.632;2022-07-19T01:17:22;17.00;99.90
63537;DHT22;49686;51.880;5.632;2022-07-19T01:19:52;17.00;99.90
63537;DHT22;49686;51.880;5.632;2022-07-19T01:22:21;16.90;99.90
63537;DHT22;49686;51.880;5.632;2022-07-19T01:24:48;16.80;99.90
63537;DHT22;49686;51.880;5.632;2022-07-19T01:27:15;16.80;99.90
63537;DHT22;49686;51.880;5.632;2022-07-19T01:29:42;16.70;99.90
63537;DHT22;49686;51.880;5.632;2022-07-19T01:32:09;16.70;99.90
63537;DHT22;49686;51.880;5.632;2022-07-19T01:34:36;16.70;99.90
63537;DHT22;49686;51.880;5.632;2022-07-19T01:37:03;16.70;99.90
63537;DHT22;49686;51.880;5.632;2022-07-19T01:39:31;16.70;99.90
63537;DHT22;49686;51.880;5.632;2022-07-19T01:41:59;16.70;99.90
63537;DHT22;49686;51.880;5.632;2022-07-19T01:44:28;16.60;99.90
63537;DHT22;49686;51.880;5.632;2022-07-19T01:46:55;16.60;99.90
63537;DHT22;49686;51.880;5.632;2022-07-19T01:49:23;16.50;99.90
63537;DHT22;49686;51.880;5.632;2022-07-19T01:51:50;16.50;99.90
63537;DHT22;49686;51.880;5.632;2022-07-19T01:54:19;16.50;99.90
63537;DHT22;49686;51.880;5.632;2022-07-19T01:56:51;16.50;99.90
63537;DHT22;49686;51.880;5.632;2022-07-19T01:59:17;16.60;99.90
63537;DHT22;49686;51.880;5.632;2022-07-19T02:01:45;16.50;99.90
63537;DHT22;49686;51.880;5.632;2022-07-19T02:04:12;16.50;99.90
63537;DHT22;49686;51.880;5.632;2022-07-19T02:06:40;16.40;99.90
63537;DHT22;49686;51.880;5.632;2022-07-19T02:09:07;16.40;99.90
63537;DHT22;49686;51.880;5.632;2022-07-19T02:11:34;16.30;99.90
63537;DHT22;49686;51.880;5.632;2022-07-19T02:14:03;16.30;99.90
63537;DHT22;49686;51.880;5.632;2022-07-19T02:16:30;16.20;99.90
63537;DHT22;49686;51.880;5.632;2022-07-19T02:18:58;16.10;99.90
63537;DHT22;49686;51.880;5.632;2022-07-19T02:21:25;16.20;99.90
63537;DHT22;49686;51.880;5.632;2022-07-19T02:23:54;16.10;99.90
63537;DHT22;49686;51.880;5.632;2022-07-19T02:26:21;16.00;99.90
63537;DHT22;49686;51.880;5.632;2022-07-19T02:28:48;16.10;99.90
63537;DHT22;49686;51.880;5.632;2022-07-19T02:31:17;16.10;99.90
63537;DHT22;49686;51.880;5.632;2022-07-19T02:33:44;16.10;99.90
63537;DHT22;49686;51.880;5.632;2022-07-19T02:36:11;16.10;99.90
63537;DHT22;49686;51.880;5.632;2022-07-19T02:38:38;16.20;99.90
63537;DHT22;49686;51.880;5.632;2022-07-19T02:41:06;16.30;99.90
63537;DHT22;49686;51.880;5.632;2022-07-19T02:43:33;16.30;99.90
63537;DHT22;49686;51.880;5.632;2022-07-19T02:46:00;16.30;99.90
63537;DHT22;49686;51.880;5.632;2022-07-19T02:48:29;16.40;99.90
63537;DHT22;49686;51.880;5.632;2022-07-19T02:50:58;16.50;99.90
63537;DHT22;49686;51.880;5.632;2022-07-19T02:53:25;16.50;99.90
63537;DHT22;49686;51.880;5.632;2022-07-19T02:55:56;16.50;99.90
63537;DHT22;49686;51.880;5.632;2022-07-19T02:58:22;16.50;99.90
63537;DHT22;49686;51.880;5.632;2022-07-19T03:00:49;16.60;99.90
63537;DHT22;49686;51.880;5.632;2022-07-19T03:03:17;16.60;99.90
63537;DHT22;49686;51.880;5.632;2022-07-19T03:05:45;16.70;99.90
63537;DHT22;49686;51.880;5.632;2022-07-19T03:08:12;16.50;99.90
63537;DHT22;49686;51.880;5.632;2022-07-19T03:10:39;16.50;99.90
63537;DHT22;49686;51.880;5.632;2022-07-19T03:13:06;16.40;99.90
63537;DHT22;49686;51.880;5.632;2022-07-19T03:15:33;16.40;99.90
63537;DHT22;49686;51.880;5.632;2022-07-19T03:18:03;16.30;99.90
63537;DHT22;49686;51.880;5.632;2022-07-19T03:20:33;16.30;99.90
63537;DHT22;49686;51.880;5.632;2022-07-19T03:23:02;16.20;99.90
63537;DHT22;49686;51.880;5.632;2022-07-19T03:25:29;16.20;99.90
63537;DHT22;49686;51.880;5.632;2022-07-19T03:27:56;16.10;99.90
63537;DHT22;49686;51.880;5.632;2022-07-19T03:30:26;16.10;99.90
63537;DHT22;49686;51.880;5.632;2022-07-19T03:32:53;16.10;99.90
63537;DHT22;49686;51.880;5.632;2022-07-19T03:35:20;16.10;99.90
63537;DHT22;49686;51.880;5.632;2022-07-19T03:37:47;16.10;99.90
63537;DHT22;49686;51.880;5.632;2022-07-19T03:40:16;16.20;99.90
63537;DHT22;49686;51.880;5.632;2022-07-19T03:42:43;16.20;99.90
63537;DHT22;49686;51.880;5.632;2022-07-19T03:45:10;16.20;99.90
63537;DHT22;49686;51.880;5.632;2022-07-19T03:47:41;16.20;99.90
63537;DHT22;49686;51.880;5.632;2022-07-19T03:50:14;16.20;99.90
63537;DHT22;49686;51.880;5.632;2022-07-19T03:52:50;16.10;99.90
63537;DHT22;49686;51.880;5.632;2022-07-19T03:55:19;16.10;99.90
63537;DHT22;49686;51.880;5.632;2022-07-19T03:57:48;16.00;99.90
63537;DHT22;49686;51.880;5.632;2022-07-19T04:00:15;16.10;99.90
63537;DHT22;49686;51.880;5.632;2022-07-19T04:02:44;16.20;99.90
63537;DHT22;49686;51.880;5.632;2022-07-19T04:05:15;16.30;99.90
63537;DHT22;49686;51.880;5.632;2022-07-19T04:07:42;16.50;99.90
63537;DHT22;49686;51.880;5.632;2022-07-19T04:10:09;16.50;99.90
63537;DHT22;49686;51.880;5.632;2022-07-19T04:12:38;16.70;99.90
63537;DHT22;49686;51.880;5.632;2022-07-19T04:15:06;16.80;99.90
63537;DHT22;49686;51.880;5.632;2022-07-19T04:17:36;16.90;99.90
63537;DHT22;49686;51.880;5.632;2022-07-19T04:20:11;17.00;99.90
63537;DHT22;49686;51.880;5.632;2022-07-19T04:22:38;17.00;99.90
63537;DHT22;49686;51.880;5.632;2022-07-19T04:25:09;17.20;99.90
63537;DHT22;49686;51.880;5.632;2022-07-19T04:27:38;17.20;99.90
63537;DHT22;49686;51.880;5.632;2022-07-19T04:30:05;17.30;99.90
63537;DHT22;49686;51.880;5.632;2022-07-19T04:32:33;17.40;99.90
63537;DHT22;49686;51.880;5.632;2022-07-19T04:35:01;17.60;99.90
63537;DHT22;49686;51.880;5.632;2022-07-19T04:37:30;17.90;99.90
63537;DHT22;49686;51.880;5.632;2022-07-19T04:39:57;18.30;99.90
63537;DHT22;49686;51.880;5.632;2022-07-19T04:42:24;18.70;99.90
63537;DHT22;49686;51.880;5.632;2022-07-19T04:44:52;19.10;99.90
63537;DHT22;49686;51.880;5.632;2022-07-19T04:47:19;19.40;99.90
63537;DHT22;49686;51.880;5.632;2022-07-19T04:49:50;19.80;99.90
63537;DHT22;49686;51.880;5.632;2022-07-19T04:52:16;20.20;99.90
63537;DHT22;49686;51.880;5.632;2022-07-19T04:54:43;20.60;99.90
63537;DHT22;49686;51.880;5.632;2022-07-19T04:57:11;20.90;99.90
63537;DHT22;49686;51.880;5.632;2022-07-19T04:59:38;21.10;99.90
63537;DHT22;49686;51.880;5.632;2022-07-19T05:02:06;21.30;99.90
63537;DHT22;49686;51.880;5.632;2022-07-19T05:04:36;21.70;99.90
63537;DHT22;49686;51.880;5.632;2022-07-19T05:07:04;21.90;99.70
63537;DHT22;49686;51.880;5.632;2022-07-19T05:09:31;22.10;98.30
63537;DHT22;49686;51.880;5.632;2022-07-19T05:11:58;22.00;99.40
63537;DHT22;49686;51.880;5.632;2022-07-19T05:14:28;22.30;99.40
63537;DHT22;49686;51.880;5.632;2022-07-19T05:16:58;22.60;98.70
63537;DHT22;49686;51.880;5.632;2022-07-19T05:19:26;22.80;97.90
63537;DHT22;49686;51.880;5.632;2022-07-19T05:21:53;23.10;98.40
63537;DHT22;49686;51.880;5.632;2022-07-19T05:24:20;23.40;97.10
63537;DHT22;49686;51.880;5.632;2022-07-19T05:26:49;23.50;96.80
63537;DHT22;49686;51.880;5.632;2022-07-19T05:29:16;23.70;96.80
63537;DHT22;49686;51.880;5.632;2022-07-19T05:31:42;23.80;95.80
63537;DHT22;49686;51.880;5.632;2022-07-19T05:34:10;24.30;96.40
63537;DHT22;49686;51.880;5.632;2022-07-19T05:36:39;24.90;95.00
63537;DHT22;49686;51.880;5.632;2022-07-19T05:39:21;25.40;92.20
63537;DHT22;49686;51.880;5.632;2022-07-19T05:41:48;25.30;90.20
63537;DHT22;49686;51.880;5.632;2022-07-19T05:44:15;25.20;91.30
63537;DHT22;49686;51.880;5.632;2022-07-19T05:46:42;25.60;91.50
63537;DHT22;49686;51.880;5.632;2022-07-19T05:49:11;26.00;90.80
63537;DHT22;49686;51.880;5.632;2022-07-19T05:51:43;26.40;89.90
63537;DHT22;49686;51.880;5.632;2022-07-19T05:54:10;26.80;84.80
63537;DHT22;49686;51.880;5.632;2022-07-19T05:56:41;26.90;82.40
63537;DHT22;49686;51.880;5.632;2022-07-19T05:59:08;26.90;83.90
63537;DHT22;49686;51.880;5.632;2022-07-19T06:01:38;27.00;80.30
63537;DHT22;49686;51.880;5.632;2022-07-19T06:04:06;27.20;79.20
63537;DHT22;49686;51.880;5.632;2022-07-19T06:06:34;27.50;76.60
63537;DHT22;49686;51.880;5.632;2022-07-19T06:09:08;27.30;74.00
63537;DHT22;49686;51.880;5.632;2022-07-19T06:11:35;27.30;72.90
63537;DHT22;49686;51.880;5.632;2022-07-19T06:14:03;27.00;73.10
63537;DHT22;49686;51.880;5.632;2022-07-19T06:16:33;27.00;76.10
63537;DHT22;49686;51.880;5.632;2022-07-19T06:19:01;27.20;74.10
63537;DHT22;49686;51.880;5.632;2022-07-19T06:21:31;27.20;75.40
63537;DHT22;49686;51.880;5.632;2022-07-19T06:23:58;27.70;74.90
63537;DHT22;49686;51.880;5.632;2022-07-19T06:26:30;28.40;72.50
63537;DHT22;49686;51.880;5.632;2022-07-19T06:28:56;28.70;70.70
63537;DHT22;49686;51.880;5.632;2022-07-19T06:31:26;29.10;67.10
63537;DHT22;49686;51.880;5.632;2022-07-19T06:33:53;29.60;68.20
63537;DHT22;49686;51.880;5.632;2022-07-19T06:36:23;30.20;65.50
63537;DHT22;49686;51.880;5.632;2022-07-19T06:38:50;30.40;62.20
63537;DHT22;49686;51.880;5.632;2022-07-19T06:41:17;30.70;60.50
63537;DHT22;49686;51.880;5.632;2022-07-19T06:43:46;31.10;60.00
63537;DHT22;49686;51.880;5.632;2022-07-19T06:46:14;31.50;58.10
63537;DHT22;49686;51.880;5.632;2022-07-19T06:48:42;31.80;56.90
63537;DHT22;49686;51.880;5.632;2022-07-19T06:51:09;31.70;54.80
63537;DHT22;49686;51.880;5.632;2022-07-19T06:53:36;31.60;54.80
63537;DHT22;49686;51.880;5.632;2022-07-19T06:56:06;31.50;55.10
63537;DHT22;49686;51.880;5.632;2022-07-19T06:58:37;31.80;53.80
63537;DHT22;49686;51.880;5.632;2022-07-19T07:01:11;32.10;53.70
63537;DHT22;49686;51.880;5.632;2022-07-19T07:03:38;32.30;52.30
63537;DHT22;49686;51.880;5.632;2022-07-19T07:06:06;32.50;52.00
63537;DHT22;49686;51.880;5.632;2022-07-19T07:08:33;32.80;50.40
63537;DHT22;49686;51.880;5.632;2022-07-19T07:11:03;33.00;50.10
63537;DHT22;49686;51.880;5.632;2022-07-19T07:13:43;32.80;47.90
63537;DHT22;49686;51.880;5.632;2022-07-19T07:16:11;32.40;48.20
63537;DHT22;49686;51.880;5.632;2022-07-19T07:18:39;32.20;49.40
63537;DHT22;49686;51.880;5.632;2022-07-19T07:21:05;32.50;48.50
63537;DHT22;49686;51.880;5.632;2022-07-19T07:23:32;32.70;48.10
63537;DHT22;49686;51.880;5.632;2022-07-19T07:26:03;32.70;48.00
63537;DHT22;49686;51.880;5.632;2022-07-19T07:28:30;33.20;46.90
63537;DHT22;49686;51.880;5.632;2022-07-19T07:30:57;33.20;45.70
63537;DHT22;49686;51.880;5.632;2022-07-19T07:33:26;33.30;43.80
63537;DHT22;49686;51.880;5.632;2022-07-19T07:36:03;33.20;43.90
63537;DHT22;49686;51.880;5.632;2022-07-19T07:38:36;33.10;43.40
63537;DHT22;49686;51.880;5.632;2022-07-19T07:41:04;33.60;43.80
63537;DHT22;49686;51.880;5.632;2022-07-19T07:43:54;33.60;42.20
63537;DHT22;49686;51.880;5.632;2022-07-19T07:46:21;33.30;42.90
63537;DHT22;49686;51.880;5.632;2022-07-19T07:48:49;33.60;43.00
63537;DHT22;49686;51.880;5.632;2022-07-19T07:51:23;33.80;41.60
63537;DHT22;49686;51.880;5.632;2022-07-19T07:54:10;34.00;41.50
63537;DHT22;49686;51.880;5.632;2022-07-19T07:56:41;34.10;40.80
63537;DHT22;49686;51.880;5.632;2022-07-19T07:59:11;33.90;42.20
63537;DHT22;49686;51.880;5.632;2022-07-19T08:01:38;33.70;41.00
63537;DHT22;49686;51.880;5.632;2022-07-19T08:04:08;33.70;39.90
63537;DHT22;49686;51.880;5.632;2022-07-19T08:06:34;33.70;39.30
63537;DHT22;49686;51.880;5.632;2022-07-19T08:09:02;33.30;40.50
63537;DHT22;49686;51.880;5.632;2022-07-19T08:11:29;33.40;40.80
63537;DHT22;49686;51.880;5.632;2022-07-19T08:13:56;33.20;40.80
63537;DHT22;49686;51.880;5.632;2022-07-19T08:16:23;33.20;41.20
63537;DHT22;49686;51.880;5.632;2022-07-19T08:18:51;33.00;39.40
63537;DHT22;49686;51.880;5.632;2022-07-19T08:21:19;32.10;41.30
63537;DHT22;49686;51.880;5.632;2022-07-19T08:23:46;32.30;41.50
63537;DHT22;49686;51.880;5.632;2022-07-19T08:26:16;32.30;40.20
63537;DHT22;49686;51.880;5.632;2022-07-19T08:28:42;32.40;40.50
63537;DHT22;49686;51.880;5.632;2022-07-19T08:31:09;32.40;41.50
63537;DHT22;49686;51.880;5.632;2022-07-19T08:33:40;32.50;41.10
63537;DHT22;49686;51.880;5.632;2022-07-19T08:36:07;32.80;41.00
63537;DHT22;49686;51.880;5.632;2022-07-19T08:38:38;32.90;40.00
63537;DHT22;49686;51.880;5.632;2022-07-19T08:41:05;33.30;40.80
63537;DHT22;49686;51.880;5.632;2022-07-19T08:43:35;34.00;39.80
63537;DHT22;49686;51.880;5.632;2022-07-19T08:46:03;33.80;40.10
63537;DHT22;49686;51.880;5.632;2022-07-19T08:48:32;34.00;40.60
63537;DHT22;49686;51.880;5.632;2022-07-19T08:51:08;34.20;40.60
63537;DHT22;49686;51.880;5.632;2022-07-19T08:53:37;33.90;41.10
63537;DHT22;49686;51.880;5.632;2022-07-19T08:56:07;33.70;40.70
63537;DHT22;49686;51.880;5.632;2022-07-19T08:58:34;33.50;40.70
63537;DHT22;49686;51.880;5.632;2022-07-19T09:01:01;33.70;40.60
63537;DHT22;49686;51.880;5.632;2022-07-19T09:03:28;33.70;39.30
63537;DHT22;49686;51.880;5.632;2022-07-19T09:06:03;33.40;39.80
63537;DHT22;49686;51.880;5.632;2022-07-19T09:08:30;33.40;38.80
63537;DHT22;49686;51.880;5.632;2022-07-19T09:10:58;33.40;39.80
63537;DHT22;49686;51.880;5.632;2022-07-19T09:13:25;33.40;39.10
63537;DHT22;49686;51.880;5.632;2022-07-19T09:15:53;33.20;39.20
63537;DHT22;49686;51.880;5.632;2022-07-19T09:18:23;33.30;38.20
63537;DHT22;49686;51.880;5.632;2022-07-19T09:20:51;33.20;37.10
63537;DHT22;49686;51.880;5.632;2022-07-19T09:23:20;33.00;37.90
63537;DHT22;49686;51.880;5.632;2022-07-19T09:25:48;33.30;38.40
63537;DHT22;49686;51.880;5.632;2022-07-19T09:28:18;33.20;37.40
63537;DHT22;49686;51.880;5.632;2022-07-19T09:30:47;33.20;37.30
63537;DHT22;49686;51.880;5.632;2022-07-19T09:33:18;33.30;36.00
63537;DHT22;49686;51.880;5.632;2022-07-19T09:35:47;33.60;37.30
63537;DHT22;49686;51.880;5.632;2022-07-19T09:38:22;33.80;37.50
63537;DHT22;49686;51.880;5.632;2022-07-19T09:40:52;34.20;37.50
63537;DHT22;49686;51.880;5.632;2022-07-19T09:43:21;34.40;37.10
63537;DHT22;49686;51.880;5.632;2022-07-19T09:46:27;34.80;36.50
63537;DHT22;49686;51.880;5.632;2022-07-19T09:49:05;35.00;35.90
63537;DHT22;49686;51.880;5.632;2022-07-19T09:51:33;35.20;35.40
63537;DHT22;49686;51.880;5.632;2022-07-19T09:54:02;34.70;34.90
63537;DHT22;49686;51.880;5.632;2022-07-19T09:56:33;34.30;35.30
63537;DHT22;49686;51.880;5.632;2022-07-19T09:59:01;34.00;35.70
63537;DHT22;49686;51.880;5.632;2022-07-19T10:01:30;34.00;35.30
63537;DHT22;49686;51.880;5.632;2022-07-19T10:04:02;34.20;34.90
63537;DHT22;49686;51.880;5.632;2022-07-19T10:06:29;34.30;35.40
63537;DHT22;49686;51.880;5.632;2022-07-19T10:09:00;34.80;34.70
63537;DHT22;49686;51.880;5.632;2022-07-19T10:11:29;34.70;34.20
63537;DHT22;49686;51.880;5.632;2022-07-19T10:13:56;34.70;34.80
63537;DHT22;49686;51.880;5.632;2022-07-19T10:16:27;35.10;34.10
63537;DHT22;49686;51.880;5.632;2022-07-19T10:19:02;35.50;34.10
63537;DHT22;49686;51.880;5.632;2022-07-19T10:21:30;36.10;32.70
63537;DHT22;49686;51.880;5.632;2022-07-19T10:23:57;35.80;33.60
63537;DHT22;49686;51.880;5.632;2022-07-19T10:26:34;35.70;33.60
63537;DHT22;49686;51.880;5.632;2022-07-19T10:29:16;36.00;32.40
63537;DHT22;49686;51.880;5.632;2022-07-19T10:32:03;36.30;32.30
63537;DHT22;49686;51.880;5.632;2022-07-19T10:34:31;36.20;32.40
63537;DHT22;49686;51.880;5.632;2022-07-19T10:37:00;35.80;33.40
63537;DHT22;49686;51.880;5.632;2022-07-19T10:39:30;35.90;33.70
63537;DHT22;49686;51.880;5.632;2022-07-19T10:42:09;36.00;33.00
63537;DHT22;49686;51.880;5.632;2022-07-19T10:53:59;36.80;31.50
63537;DHT22;49686;51.880;5.632;2022-07-19T10:59:32;36.70;30.80
63537;DHT22;49686;51.880;5.632;2022-07-19T11:02:02;36.70;31.60
63537;DHT22;49686;51.880;5.632;2022-07-19T11:04:50;36.90;32.10
63537;DHT22;49686;51.880;5.632;2022-07-19T11:07:21;36.90;31.40
63537;DHT22;49686;51.880;5.632;2022-07-19T11:09:51;36.90;30.70
63537;DHT22;49686;51.880;5.632;2022-07-19T11:12:21;37.00;31.30
63537;DHT22;49686;51.880;5.632;2022-07-19T11:14:48;37.00;31.70
63537;DHT22;49686;51.880;5.632;2022-07-19T11:17:38;36.90;31.40
63537;DHT22;49686;51.880;5.632;2022-07-19T11:20:08;36.90;31.90
63537;DHT22;49686;51.880;5.632;2022-07-19T11:22:39;36.60;31.00
63537;DHT22;49686;51.880;5.632;2022-07-19T11:25:09;36.50;31.20
63537;DHT22;49686;51.880;5.632;2022-07-19T11:27:39;36.70;32.00
63537;DHT22;49686;51.880;5.632;2022-07-19T11:30:08;36.90;31.10
63537;DHT22;49686;51.880;5.632;2022-07-19T11:32:35;36.70;32.20
63537;DHT22;49686;51.880;5.632;2022-07-19T11:35:05;36.50;32.40
63537;DHT22;49686;51.880;5.632;2022-07-19T11:37:34;36.50;32.90
63537;DHT22;49686;51.880;5.632;2022-07-19T11:40:07;36.60;33.70
63537;DHT22;49686;51.880;5.632;2022-07-19T11:42:37;36.70;33.20
63537;DHT22;49686;51.880;5.632;2022-07-19T11:45:25;36.70;33.20
63537;DHT22;49686;51.880;5.632;2022-07-19T11:47:56;36.60;33.20
63537;DHT22;49686;51.880;5.632;2022-07-19T11:50:27;36.50;32.50
63537;DHT22;49686;51.880;5.632;2022-07-19T11:52:55;36.40;32.80
63537;DHT22;49686;51.880;5.632;2022-07-19T11:55:26;36.60;32.70
63537;DHT22;49686;51.880;5.632;2022-07-19T11:57:56;36.50;33.40
63537;DHT22;49686;51.880;5.632;2022-07-19T12:00:24;36.40;33.70
63537;DHT22;49686;51.880;5.632;2022-07-19T12:02:58;36.60;33.50
63537;DHT22;49686;51.880;5.632;2022-07-19T12:05:26;36.70;33.40
63537;DHT22;49686;51.880;5.632;2022-07-19T12:07:58;36.80;33.10
63537;DHT22;49686;51.880;5.632;2022-07-19T12:10:38;36.90;33.10
63537;DHT22;49686;51.880;5.632;2022-07-19T12:13:09;36.60;33.10
63537;DHT22;49686;51.880;5.632;2022-07-19T12:15:51;36.40;33.90
63537;DHT22;49686;51.880;5.632;2022-07-19T12:18:22;36.40;33.10
63537;DHT22;49686;51.880;5.632;2022-07-19T12:24:12;36.90;33.60
63537;DHT22;49686;51.880;5.632;2022-07-19T12:26:43;36.90;33.40
63537;DHT22;49686;51.880;5.632;2022-07-19T12:29:26;37.00;33.90
63537;DHT22;49686;51.880;5.632;2022-07-19T12:31:55;37.10;33.60
63537;DHT22;49686;51.880;5.632;2022-07-19T12:34:23;37.00;34.20
63537;DHT22;49686;51.880;5.632;2022-07-19T12:36:50;36.90;33.60
63537;DHT22;49686;51.880;5.632;2022-07-19T12:39:19;37.10;33.90
63537;DHT22;49686;51.880;5.632;2022-07-19T12:41:55;37.00;33.90
63537;DHT22;49686;51.880;5.632;2022-07-19T12:44:25;36.90;33.60
63537;DHT22;49686;51.880;5.632;2022-07-19T12:46:52;37.00;33.90
63537;DHT22;49686;51.880;5.632;2022-07-19T12:49:41;37.20;33.30
63537;DHT22;49686;51.880;5.632;2022-07-19T12:52:09;37.20;33.40
63537;DHT22;49686;51.880;5.632;2022-07-19T12:54:36;37.30;32.90
63537;DHT22;49686;51.880;5.632;2022-07-19T12:57:04;37.60;33.20
63537;DHT22;49686;51.880;5.632;2022-07-19T12:59:31;37.70;31.60
63537;DHT22;49686;51.880;5.632;2022-07-19T13:02:03;37.80;31.90
63537;DHT22;49686;51.880;5.632;2022-07-19T13:04:31;37.70;31.00
63537;DHT22;49686;51.880;5.632;2022-07-19T13:06:57;37.30;31.10
63537;DHT22;49686;51.880;5.632;2022-07-19T13:09:24;37.30;31.50
63537;DHT22;49686;51.880;5.632;2022-07-19T13:11:52;37.40;31.60
63537;DHT22;49686;51.880;5.632;2022-07-19T13:14:26;37.20;31.10
63537;DHT22;49686;51.880;5.632;2022-07-19T13:16:53;37.20;30.90
63537;DHT22;49686;51.880;5.632;2022-07-19T13:19:22;37.30;30.60
63537;DHT22;49686;51.880;5.632;2022-07-19T13:21:50;37.30;30.60
63537;DHT22;49686;51.880;5.632;2022-07-19T13:24:20;37.00;31.10
63537;DHT22;49686;51.880;5.632;2022-07-19T13:27:07;37.00;30.90
63537;DHT22;49686;51.880;5.632;2022-07-19T13:29:36;37.20;29.90
63537;DHT22;49686;51.880;5.632;2022-07-19T13:32:03;36.90;30.50
63537;DHT22;49686;51.880;5.632;2022-07-19T13:34:32;36.80;29.90
63537;DHT22;49686;51.880;5.632;2022-07-19T13:37:03;36.70;29.70
63537;DHT22;49686;51.880;5.632;2022-07-19T13:39:30;36.70;30.00
63537;DHT22;49686;51.880;5.632;2022-07-19T13:41:57;36.90;30.70
63537;DHT22;49686;51.880;5.632;2022-07-19T13:44:25;36.90;30.00
63537;DHT22;49686;51.880;5.632;2022-07-19T13:46:53;37.10;30.00
63537;DHT22;49686;51.880;5.632;2022-07-19T13:49:20;37.00;29.90
63537;DHT22;49686;51.880;5.632;2022-07-19T13:51:53;37.00;30.30
63537;DHT22;49686;51.880;5.632;2022-07-19T13:54:26;37.10;30.70
63537;DHT22;49686;51.880;5.632;2022-07-19T13:56:53;37.00;30.30
63537;DHT22;49686;51.880;5.632;2022-07-19T13:59:23;36.80;30.50
63537;DHT22;49686;51.880;5.632;2022-07-19T14:01:52;36.80;31.20
63537;DHT22;49686;51.880;5.632;2022-07-19T14:04:20;36.90;30.10
63537;DHT22;49686;51.880;5.632;2022-07-19T14:06:49;36.90;29.70
63537;DHT22;49686;51.880;5.632;2022-07-19T14:09:19;37.00;29.60
63537;DHT22;49686;51.880;5.632;2022-07-19T14:11:46;37.00;29.80
63537;DHT22;49686;51.880;5.632;2022-07-19T14:14:13;37.00;30.30
63537;DHT22;49686;51.880;5.632;2022-07-19T14:16:43;36.90;29.10
63537;DHT22;49686;51.880;5.632;2022-07-19T14:19:13;36.90;28.40
63537;DHT22;49686;51.880;5.632;2022-07-19T14:21:46;36.70;28.90
63537;DHT22;49686;51.880;5.632;2022-07-19T14:27:00;36.60;28.70
63537;DHT22;49686;51.880;5.632;2022-07-19T14:29:27;36.70;28.90
63537;DHT22;49686;51.880;5.632;2022-07-19T14:31:53;36.80;28.90
63537;DHT22;49686;51.880;5.632;2022-07-19T14:34:23;36.80;29.00
63537;DHT22;49686;51.880;5.632;2022-07-19T14:37:05;36.90;28.20
63537;DHT22;49686;51.880;5.632;2022-07-19T14:39:34;36.90;28.50
63537;DHT22;49686;51.880;5.632;2022-07-19T14:42:01;37.00;29.00
63537;DHT22;49686;51.880;5.632;2022-07-19T14:44:29;37.00;29.30
63537;DHT22;49686;51.880;5.632;2022-07-19T14:47:00;37.10;28.60
63537;DHT22;49686;51.880;5.632;2022-07-19T14:49:28;37.10;28.90
63537;DHT22;49686;51.880;5.632;2022-07-19T14:51:58;37.10;29.20
63537;DHT22;49686;51.880;5.632;2022-07-19T14:54:26;37.00;28.50
63537;DHT22;49686;51.880;5.632;2022-07-19T14:56:54;37.10;28.00
63537;DHT22;49686;51.880;5.632;2022-07-19T14:59:23;36.90;28.00
63537;DHT22;49686;51.880;5.632;2022-07-19T15:01:51;36.90;28.20
63537;DHT22;49686;51.880;5.632;2022-07-19T15:04:18;36.90;27.60
63537;DHT22;49686;51.880;5.632;2022-07-19T15:06:47;36.90;27.60
63537;DHT22;49686;51.880;5.632;2022-07-19T15:09:15;36.70;27.30
63537;DHT22;49686;51.880;5.632;2022-07-19T15:11:43;36.60;27.20
63537;DHT22;49686;51.880;5.632;2022-07-19T15:14:12;36.50;27.70
63537;DHT22;49686;51.880;5.632;2022-07-19T15:16:43;36.60;27.60
63537;DHT22;49686;51.880;5.632;2022-07-19T15:19:10;36.90;27.40
63537;DHT22;49686;51.880;5.632;2022-07-19T15:21:37;36.90;27.80
63537;DHT22;49686;51.880;5.632;2022-07-19T15:24:06;37.00;27.10
63537;DHT22;49686;51.880;5.632;2022-07-19T15:26:34;36.90;27.20
63537;DHT22;49686;51.880;5.632;2022-07-19T15:29:01;36.80;27.40
63537;DHT22;49686;51.880;5.632;2022-07-19T15:31:37;36.70;27.20
63537;DHT22;49686;51.880;5.632;2022-07-19T15:34:10;36.70;26.90
63537;DHT22;49686;51.880;5.632;2022-07-19T15:36:39;36.50;26.90
63537;DHT22;49686;51.880;5.632;2022-07-19T15:39:10;36.40;27.30
63537;DHT22;49686;51.880;5.632;2022-07-19T15:41:38;36.50;27.80
63537;DHT22;49686;51.880;5.632;2022-07-19T15:44:08;36.50;28.00
63537;DHT22;49686;51.880;5.632;2022-07-19T15:46:35;36.70;28.30
63537;DHT22;49686;51.880;5.632;2022-07-19T15:49:09;36.60;27.90
63537;DHT22;49686;51.880;5.632;2022-07-19T15:51:38;36.40;27.40
63537;DHT22;49686;51.880;5.632;2022-07-19T15:54:16;36.30;27.60
63537;DHT22;49686;51.880;5.632;2022-07-19T15:56:46;36.30;27.80
63537;DHT22;49686;51.880;5.632;2022-07-19T15:59:18;36.50;27.80
63537;DHT22;49686;51.880;5.632;2022-07-19T16:01:45;36.70;28.20